createdAt,value
2022-11-08T00:08:46.227Z,30.07
2022-11-08T00:18:47.708Z,34.17
2022-11-08T00:28:49.212Z,31.33
2022-11-08T00:38:50.748Z,30.70
2022-11-08T00:48:52.286Z,33.72
2022-11-08T00:58:53.779Z,35.57
2022-11-08T01:08:55.936Z,30.77
2022-11-08T01:18:58.678Z,28.97
2022-11-08T01:29:00.221Z,26.60
2022-11-08T01:39:01.707Z,30.42
2022-11-08T01:49:18.575Z,27.13
2022-11-08T01:59:21.556Z,28.77
2022-11-08T02:09:23.014Z,27.87
2022-11-08T02:19:39.756Z,27.87
2022-11-08T02:29:41.335Z,24.92
2022-11-08T02:39:42.830Z,23.87
2022-11-08T02:49:44.437Z,26.40
2022-11-08T02:59:45.934Z,23.13
2022-11-08T03:09:47.418Z,24.23
2022-11-08T03:19:48.893Z,25.58
2022-11-08T03:29:50.376Z,24.10
2022-11-08T03:39:51.894Z,24.40
2022-11-08T03:49:53.401Z,24.80
2022-11-08T03:59:54.904Z,25.13
2022-11-08T04:09:56.686Z,22.23
2022-11-08T04:19:58.165Z,24.67
2022-11-08T04:29:59.637Z,23.53
2022-11-08T04:40:01.123Z,24.37
2022-11-08T04:50:02.723Z,22.17
2022-11-08T05:00:04.642Z,24.23
2022-11-08T05:10:06.805Z,29.10
2022-11-08T05:20:10.633Z,22.00
2022-11-08T05:30:12.359Z,25.40
2022-11-08T05:40:13.905Z,23.53
2022-11-08T05:50:19.290Z,30.20
2022-11-08T06:00:21.638Z,23.80
2022-11-08T06:10:23.295Z,29.37
2022-11-08T06:20:24.793Z,25.67
2022-11-08T06:30:26.336Z,25.97
2022-11-08T06:40:27.827Z,28.05
2022-11-08T06:50:30.815Z,24.27
2022-11-08T07:00:32.569Z,26.77
2022-11-08T07:10:34.381Z,28.10
2022-11-08T07:20:36.444Z,28.60
2022-11-08T07:30:39.771Z,24.77
2022-11-08T07:40:41.855Z,24.70
2022-11-08T07:50:43.460Z,26.03
2022-11-08T08:00:45.370Z,26.60
2022-11-08T08:10:47.230Z,21.20
2022-11-08T08:20:48.859Z,25.70
2022-11-08T08:30:50.466Z,24.30
2022-11-08T08:40:52.128Z,26.53
2022-11-08T08:50:53.779Z,25.40
2022-11-08T09:11:22.319Z,28.27
2022-11-08T09:21:23.967Z,24.93
2022-11-08T09:31:25.590Z,26.90
2022-11-08T09:41:56.094Z,29.53
2022-11-08T09:52:00.531Z,30.10
2022-11-08T10:02:02.865Z,36.20
2022-11-08T10:12:25.138Z,31.50
2022-11-08T10:22:38.840Z,32.07
2022-11-08T10:32:40.471Z,32.07
2022-11-08T10:42:47.004Z,36.20
2022-11-08T10:53:03.570Z,35.70
2022-11-08T11:03:11.410Z,36.23
2022-11-08T11:23:39.915Z,32.90
2022-11-08T11:33:45.828Z,34.03
2022-11-08T11:43:56.212Z,40.55
2022-11-08T11:53:58.453Z,36.43
2022-11-08T12:04:34.237Z,37.97
2022-11-08T12:14:48.350Z,40.27
2022-11-08T12:25:01.816Z,38.60
2022-11-08T12:35:11.572Z,36.80
2022-11-08T12:45:35.116Z,39.80
2022-11-08T12:55:39.280Z,38.37
2022-11-08T13:05:51.936Z,38.00
2022-11-08T13:16:17.044Z,36.07
2022-11-08T13:26:25.896Z,39.42
2022-11-08T13:36:53.650Z,39.13
2022-11-08T13:46:55.324Z,40.83
2022-11-08T13:57:00.996Z,42.60
2022-11-08T14:07:11.550Z,41.50
2022-11-08T14:17:40.429Z,43.75
2022-11-08T14:27:42.015Z,41.60
2022-11-08T14:37:43.786Z,37.67
2022-11-08T14:47:46.144Z,40.87
2022-11-08T14:57:47.716Z,100.47
2022-11-08T15:07:49.275Z,43.67
2022-11-08T15:18:27.387Z,40.97
2022-11-08T15:28:34.235Z,48.53
2022-11-08T15:38:47.422Z,42.67
2022-11-08T15:48:56.353Z,45.77
2022-11-08T15:58:57.995Z,43.88
2022-11-08T16:08:59.567Z,52.90
2022-11-08T16:19:01.152Z,45.17
2022-11-08T16:29:02.707Z,49.47
2022-11-08T16:39:04.328Z,45.77
2022-11-08T16:49:06.798Z,48.03
2022-11-08T16:59:08.341Z,51.30
2022-11-08T17:09:10.095Z,44.97
2022-11-08T17:19:11.785Z,49.53
2022-11-08T17:29:13.349Z,52.47
2022-11-08T17:39:15.176Z,49.38
2022-11-08T17:49:16.731Z,52.17
2022-11-08T17:59:18.302Z,49.07
2022-11-08T18:09:19.876Z,46.03
2022-11-08T18:19:21.732Z,53.03
2022-11-08T18:29:23.296Z,56.63
2022-11-08T18:39:24.895Z,55.43
2022-11-08T18:49:26.443Z,53.20
2022-11-08T18:59:27.972Z,54.10
2022-11-08T19:09:29.788Z,51.33
2022-11-08T19:19:31.368Z,56.90
2022-11-08T19:29:32.949Z,53.80
2022-11-08T19:39:34.446Z,57.17
2022-11-08T19:49:36.012Z,54.97
2022-11-08T19:59:37.551Z,59.93
2022-11-08T20:09:39.091Z,61.45
2022-11-08T20:19:40.645Z,54.23
2022-11-08T20:29:42.239Z,62.57
2022-11-08T20:39:43.790Z,59.60
2022-11-08T20:49:45.359Z,54.57
2022-11-08T20:59:46.929Z,53.50
2022-11-08T21:09:51.772Z,57.50
2022-11-08T21:19:57.297Z,58.40
2022-11-08T21:29:58.847Z,60.23
2022-11-08T21:40:00.410Z,62.37
2022-11-08T21:50:02.117Z,62.25
2022-11-08T22:00:05.347Z,60.27
2022-11-08T22:10:08.607Z,59.80
2022-11-08T22:20:10.554Z,62.90
2022-11-08T22:30:16.518Z,61.87
2022-11-08T22:40:18.487Z,60.17
2022-11-08T22:50:20.027Z,56.87
2022-11-08T23:00:21.701Z,59.30
2022-11-08T23:10:23.227Z,59.37
2022-11-08T23:20:24.775Z,63.03
2022-11-08T23:30:26.291Z,65.25
2022-11-08T23:40:27.842Z,58.73
2022-11-08T23:50:29.384Z,59.17
